Time;durP1;ratioP1;P1;durP2;ratioP2;P2;SDS_P1;SDS_P2;PMS_P1;PMS_P2;Temp;Humidity;BMP_temperature;BMP_pressure;BME280_temperature;BME280_humidity;BME280_pressure;Samples;Min_cycle;Max_cycle;Signal;HPM_P1;HPM_P2
2023/08/05 00:01:30;;;;;;;13.20;4.80;;;13.40;99.90;;;;;;5064566;28;20071;-69
2023/08/05 00:03:57;;;;;;;13.45;5.30;;;13.50;99.90;;;;;;5054298;28;226913;-69
2023/08/05 00:06:23;;;;;;;13.48;4.85;;;13.50;99.90;;;;;;5064400;28;20061;-68
2023/08/05 00:08:49;;;;;;;11.20;4.70;;;13.50;99.90;;;;;;5053240;28;195506;-69
2023/08/05 00:11:16;;;;;;;13.15;5.75;;;13.50;99.90;;;;;;5047688;28;20055;-68
2023/08/05 00:14:11;;;;;;;14.05;5.07;;;13.50;99.90;;;;;;5061858;28;243005;-68
2023/08/05 00:16:41;;;;;;;15.38;5.32;;;13.50;99.90;;;;;;5055941;28;128605;-69
2023/08/05 00:19:08;;;;;;;12.32;5.30;;;13.60;99.90;;;;;;5075430;28;20052;-69
2023/08/05 00:21:37;;;;;;;15.20;6.00;;;13.60;99.90;;;;;;5061143;28;218445;-68
2023/08/05 00:24:35;;;;;;;17.00;5.90;;;13.60;99.90;;;;;;5083900;28;20052;-68
2023/08/05 00:27:01;;;;;;;12.27;5.30;;;13.60;99.90;;;;;;5049910;28;273741;-70
2023/08/05 00:29:27;;;;;;;16.50;5.57;;;13.60;99.90;;;;;;5061086;28;20056;-69
2023/08/05 00:32:05;;;;;;;12.37;5.40;;;13.60;99.90;;;;;;4971213;28;2628573;-69
2023/08/05 00:34:33;;;;;;;12.32;5.30;;;13.60;99.90;;;;;;5071675;28;20134;-67
2023/08/05 00:37:01;;;;;;;17.95;5.90;;;13.70;99.90;;;;;;5053817;28;322255;-68
2023/08/05 00:39:31;;;;;;;14.55;5.40;;;13.70;99.90;;;;;;5053846;28;20064;-69
2023/08/05 00:41:57;;;;;;;13.02;5.70;;;13.70;99.90;;;;;;5057872;28;285629;-68
2023/08/05 00:44:26;;;;;;;14.55;5.70;;;13.70;99.90;;;;;;5081072;28;20053;-68
2023/08/05 00:46:56;;;;;;;13.25;5.40;;;13.70;99.90;;;;;;5053049;28;338218;-69
2023/08/05 00:49:43;;;;;;;18.30;5.70;;;13.80;99.90;;;;;;5056847;28;20053;-69
2023/08/05 00:52:15;;;;;;;12.77;5.07;;;13.80;99.90;;;;;;5059982;28;252345;-69
2023/08/05 00:54:45;;;;;;;12.25;5.68;;;13.80;99.90;;;;;;5062342;28;20044;-68
2023/08/05 00:57:22;;;;;;;14.65;5.47;;;13.80;99.90;;;;;;5064962;28;178542;-68
2023/08/05 00:59:48;;;;;;;13.05;5.18;;;13.80;99.90;;;;;;5060002;28;20044;-68
2023/08/05 01:02:14;;;;;;;15.48;5.40;;;13.80;99.90;;;;;;5057090;28;279654;-68
2023/08/05 01:04:40;;;;;;;13.50;5.35;;;13.80;99.90;;;;;;5072676;28;21313;-68
2023/08/05 01:07:07;;;;;;;15.18;5.68;;;13.90;99.90;;;;;;5051431;28;274324;-69
2023/08/05 01:09:33;;;;;;;12.50;4.90;;;13.90;99.90;;;;;;5067897;28;20509;-69
2023/08/05 01:11:59;;;;;;;15.00;5.13;;;13.90;99.90;;;;;;5054740;28;273616;-69
2023/08/05 01:14:25;;;;;;;15.27;5.40;;;13.90;99.90;;;;;;5071876;28;20841;-69
2023/08/05 01:16:51;;;;;;;14.60;4.97;;;13.90;99.90;;;;;;5053264;28;255460;-69
2023/08/05 01:19:21;;;;;;;17.27;5.10;;;13.90;99.90;;;;;;5078016;28;20049;-69
2023/08/05 01:22:12;;;;;;;12.40;4.70;;;13.90;99.90;;;;;;5053026;28;254217;-69
2023/08/05 01:24:53;;;;;;;15.57;4.78;;;13.90;99.90;;;;;;5066228;28;20486;-69
2023/08/05 01:27:21;;;;;;;12.68;4.70;;;13.90;99.90;;;;;;5057791;28;111563;-69
2023/08/05 01:29:47;;;;;;;12.63;4.55;;;13.90;99.90;;;;;;5072105;28;20052;-69
2023/08/05 01:32:16;;;;;;;12.98;5.00;;;13.90;99.90;;;;;;5053772;28;237112;-69
2023/08/05 01:34:43;;;;;;;13.25;4.80;;;13.90;99.90;;;;;;5070416;28;20736;-69
2023/08/05 01:37:09;;;;;;;13.00;4.95;;;13.90;99.90;;;;;;5043506;28;273563;-69
2023/08/05 01:39:35;;;;;;;14.00;5.05;;;13.80;99.90;;;;;;5076717;28;20526;-69
2023/08/05 01:42:01;;;;;;;13.88;4.70;;;13.80;99.90;;;;;;5055998;28;220546;-68
2023/08/05 01:44:27;;;;;;;10.93;4.45;;;13.80;99.90;;;;;;5074706;28;20263;-68
2023/08/05 01:46:53;;;;;;;11.27;4.78;;;13.80;99.90;;;;;;5053231;28;261692;-69
2023/08/05 01:49:19;;;;;;;12.32;4.43;;;13.70;99.90;;;;;;5066071;28;20056;-68
2023/08/05 01:51:45;;;;;;;12.55;4.78;;;13.70;99.90;;;;;;5030095;28;266722;-69
2023/08/05 01:54:12;;;;;;;19.65;5.20;;;13.60;99.90;;;;;;5064608;28;20053;-68
2023/08/05 01:56:38;;;;;;;11.27;4.63;;;13.50;99.90;;;;;;5047637;28;267331;-69
2023/08/05 01:59:04;;;;;;;12.13;4.38;;;13.50;99.90;;;;;;5058403;28;20056;-68
2023/08/05 02:01:47;;;;;;;12.52;4.40;;;13.40;99.90;;;;;;5048330;28;20056;-69
2023/08/05 02:04:14;;;;;;;11.38;4.22;;;13.30;99.90;;;;;;5059957;28;20052;-69
2023/08/05 02:06:40;;;;;;;12.20;4.30;;;13.30;99.90;;;;;;5049595;28;261789;-68
2023/08/05 02:09:07;;;;;;;10.55;4.07;;;13.30;99.90;;;;;;5076741;28;20052;-68
2023/08/05 02:11:34;;;;;;;14.07;4.47;;;13.20;99.90;;;;;;5051275;28;265993;-68
2023/08/05 02:14:00;;;;;;;11.63;4.40;;;13.10;99.90;;;;;;5076536;28;20052;-68
2023/08/05 02:16:26;;;;;;;13.73;4.82;;;13.10;99.90;;;;;;5080333;28;20060;-68
2023/08/05 02:18:52;;;;;;;13.45;6.13;;;13.00;99.90;;;;;;5063078;28;260272;-68
2023/08/05 02:21:18;;;;;;;13.35;5.40;;;13.00;99.90;;;;;;5067229;28;20044;-68
2023/08/05 02:23:45;;;;;;;14.48;5.53;;;12.90;99.90;;;;;;5058532;28;272736;-68
2023/08/05 02:26:11;;;;;;;14.52;5.30;;;12.80;99.90;;;;;;5066507;28;20053;-67
2023/08/05 02:28:37;;;;;;;11.77;4.90;;;12.70;99.90;;;;;;5054888;28;254274;-68
2023/08/05 02:31:03;;;;;;;10.55;4.95;;;12.70;99.90;;;;;;5079863;28;20057;-68
2023/08/05 02:33:29;;;;;;;11.32;4.78;;;12.70;99.90;;;;;;5049958;28;231291;-68
2023/08/05 02:36:02;;;;;;;12.35;5.57;;;12.60;99.90;;;;;;5065609;28;20505;-68
2023/08/05 02:38:28;;;;;;;12.65;5.60;;;12.60;99.90;;;;;;5048586;28;35548;-68
2023/08/05 02:40:55;;;;;;;12.90;5.38;;;12.60;99.90;;;;;;5065352;28;20059;-67
2023/08/05 02:43:21;;;;;;;13.95;5.35;;;12.70;99.90;;;;;;5055563;28;273443;-68
2023/08/05 02:45:54;;;;;;;14.70;5.93;;;12.60;99.90;;;;;;5064719;28;20554;-68
2023/08/05 02:48:24;;;;;;;11.18;5.18;;;12.70;99.90;;;;;;5059399;28;265549;-68
2023/08/05 02:50:52;;;;;;;13.25;5.40;;;12.70;99.90;;;;;;5062940;28;20056;-68
2023/08/05 02:53:18;;;;;;;12.43;5.18;;;12.70;99.90;;;;;;5025890;28;257277;-68
2023/08/05 02:55:45;;;;;;;10.45;5.10;;;12.80;99.90;;;;;;5059849;28;20048;-68
2023/08/05 02:58:11;;;;;;;14.82;5.32;;;12.80;99.90;;;;;;5059286;28;274063;-68
2023/08/05 03:00:37;;;;;;;15.10;5.60;;;12.80;99.90;;;;;;5062301;28;20063;-68
2023/08/05 03:03:04;;;;;;;16.48;4.90;;;12.80;99.90;;;;;;5055735;28;273834;-68
2023/08/05 03:05:30;;;;;;;12.88;5.40;;;12.80;99.90;;;;;;5059829;28;20132;-69
2023/08/05 03:07:56;;;;;;;14.38;5.20;;;12.80;99.90;;;;;;5057334;28;265859;-68
2023/08/05 03:10:22;;;;;;;14.35;4.80;;;12.90;99.90;;;;;;5066360;28;20040;-68
2023/08/05 03:12:48;;;;;;;13.48;5.20;;;12.90;99.90;;;;;;5048904;28;155792;-68
2023/08/05 03:15:14;;;;;;;13.00;4.88;;;13.00;99.90;;;;;;5065499;28;20049;-68
2023/08/05 03:17:40;;;;;;;11.43;4.57;;;13.00;99.90;;;;;;5058163;28;269150;-68
2023/08/05 03:20:25;;;;;;;13.07;5.55;;;13.00;99.90;;;;;;5064242;28;20045;-68
2023/08/05 03:22:53;;;;;;;12.38;4.80;;;13.10;99.90;;;;;;5062045;28;266277;-68
2023/08/05 03:25:23;;;;;;;13.15;4.65;;;13.10;99.90;;;;;;5067436;28;20060;-68
2023/08/05 03:27:49;;;;;;;16.02;5.10;;;13.20;99.90;;;;;;5053200;28;260777;-69
2023/08/05 03:30:16;;;;;;;14.40;5.57;;;13.20;99.90;;;;;;5058218;28;20056;-68
2023/08/05 03:32:42;;;;;;;14.70;5.00;;;13.20;99.90;;;;;;5055347;28;277056;-68
2023/08/05 03:35:08;;;;;;;10.73;4.68;;;13.20;99.90;;;;;;5061503;28;20733;-68
2023/08/05 03:37:34;;;;;;;11.00;4.55;;;13.20;99.90;;;;;;5051263;28;264130;-68
2023/08/05 03:40:00;;;;;;;13.52;4.85;;;13.20;99.90;;;;;;5074120;28;20566;-68
2023/08/05 03:42:26;;;;;;;10.95;4.88;;;13.30;99.90;;;;;;5049937;28;182492;-69
2023/08/05 03:44:53;;;;;;;11.57;4.68;;;13.30;99.90;;;;;;5075177;28;20044;-68
2023/08/05 03:47:20;;;;;;;12.13;5.00;;;13.30;99.90;;;;;;5054410;28;259394;-68
2023/08/05 03:49:46;;;;;;;11.23;5.13;;;13.30;99.90;;;;;;5061237;28;20055;-68
2023/08/05 03:52:13;;;;;;;13.05;4.82;;;13.40;99.90;;;;;;5024735;28;251386;-68
2023/08/05 03:54:39;;;;;;;14.40;5.30;;;13.40;99.90;;;;;;5066675;28;20052;-69
2023/08/05 03:57:08;;;;;;;13.40;4.95;;;13.40;99.90;;;;;;5054332;28;270694;-68
2023/08/05 03:59:35;;;;;;;12.77;4.97;;;13.40;99.90;;;;;;5076025;28;20063;-68
2023/08/05 04:02:03;;;;;;;11.10;4.82;;;13.50;99.90;;;;;;5054833;28;256523;-68
2023/08/05 04:04:29;;;;;;;12.38;5.07;;;13.50;99.90;;;;;;5074578;28;20063;-68
2023/08/05 04:06:55;;;;;;;10.77;4.50;;;13.50;99.90;;;;;;5033729;28;260194;-68
2023/08/05 04:09:22;;;;;;;12.82;4.43;;;13.60;99.90;;;;;;5052390;28;20080;-68
2023/08/05 04:11:49;;;;;;;11.15;4.43;;;13.60;99.90;;;;;;5053503;28;259032;-68
2023/08/05 04:14:17;;;;;;;14.32;4.70;;;13.60;99.90;;;;;;5078161;28;20056;-68
2023/08/05 04:16:43;;;;;;;12.17;4.47;;;13.60;99.90;;;;;;5052430;28;267331;-68
2023/08/05 04:19:09;;;;;;;10.02;3.70;;;13.60;99.90;;;;;;5076159;28;20057;-68
2023/08/05 04:21:40;;;;;;;12.50;4.22;;;13.70;99.90;;;;;;5052323;28;257038;-68
2023/08/05 04:24:09;;;;;;;12.27;4.65;;;13.70;99.90;;;;;;5084043;28;20507;-68
2023/08/05 04:26:35;;;;;;;12.77;4.40;;;13.70;99.90;;;;;;5053355;28;253518;-68
2023/08/05 04:29:02;;;;;;;10.75;4.28;;;13.80;99.90;;;;;;5060657;28;20049;-68
2023/08/05 04:31:29;;;;;;;10.63;4.57;;;13.80;99.90;;;;;;5070796;28;20135;-68
2023/08/05 04:33:55;;;;;;;13.77;4.28;;;13.90;99.90;;;;;;5066710;28;260466;-68
2023/08/05 04:36:21;;;;;;;12.40;5.38;;;13.90;99.90;;;;;;5066616;28;20055;-68
2023/08/05 04:38:47;;;;;;;12.05;4.70;;;13.80;99.90;;;;;;5052584;28;272461;-68
2023/08/05 04:41:13;;;;;;;16.30;5.28;;;13.80;99.90;;;;;;5071361;28;20494;-68
2023/08/05 04:43:39;;;;;;;11.35;4.70;;;13.80;99.90;;;;;;5059224;28;256772;-68
2023/08/05 04:46:05;;;;;;;11.30;4.93;;;13.70;99.90;;;;;;5067042;28;20045;-68
2023/08/05 04:48:31;;;;;;;12.68;4.47;;;13.80;99.90;;;;;;5067234;28;256919;-68
2023/08/05 04:50:57;;;;;;;10.23;4.28;;;13.80;99.90;;;;;;5069712;28;20549;-68
2023/08/05 04:53:23;;;;;;;9.70;4.30;;;13.90;99.90;;;;;;5025564;28;264535;-67
2023/08/05 04:55:49;;;;;;;13.13;4.50;;;14.00;99.90;;;;;;5061599;28;20056;-67
2023/08/05 04:58:15;;;;;;;12.68;4.47;;;14.10;99.90;;;;;;5061778;28;276899;-67
2023/08/05 05:00:41;;;;;;;9.90;4.00;;;14.00;99.90;;;;;;5061284;28;20049;-67
2023/08/05 05:03:07;;;;;;;13.48;4.40;;;14.00;99.90;;;;;;5063102;28;274235;-67
2023/08/05 05:05:35;;;;;;;11.45;4.10;;;14.00;99.90;;;;;;5071866;28;20491;-68
2023/08/05 05:08:02;;;;;;;11.00;4.32;;;14.10;99.90;;;;;;5059180;28;273440;-68
2023/08/05 05:10:28;;;;;;;10.43;4.00;;;14.10;99.90;;;;;;5074666;28;20060;-68
2023/08/05 05:12:56;;;;;;;11.43;3.95;;;14.20;99.90;;;;;;5062580;28;248322;-68
2023/08/05 05:15:23;;;;;;;14.60;3.53;;;14.30;99.90;;;;;;5074467;28;20438;-68
2023/08/05 05:17:52;;;;;;;11.73;3.78;;;14.30;99.90;;;;;;5056953;28;251944;-67
2023/08/05 05:20:18;;;;;;;13.90;3.90;;;14.40;99.90;;;;;;5063446;28;20060;-67
2023/08/05 05:22:44;;;;;;;9.15;3.50;;;14.60;99.90;;;;;;5060462;28;258358;-68
2023/08/05 05:25:10;;;;;;;11.05;3.50;;;14.70;99.90;;;;;;5057719;28;20051;-68
2023/08/05 05:27:36;;;;;;;11.88;3.67;;;14.80;99.90;;;;;;5056766;28;257919;-68
2023/08/05 05:30:03;;;;;;;11.65;3.33;;;14.90;99.90;;;;;;5066567;28;20052;-68
2023/08/05 05:32:29;;;;;;;8.95;3.22;;;15.10;99.90;;;;;;5055017;28;274615;-69
2023/08/05 05:34:55;;;;;;;9.43;3.60;;;15.30;99.90;;;;;;5075865;28;20048;-68
2023/08/05 05:37:21;;;;;;;12.27;3.30;;;15.50;99.90;;;;;;5051709;28;261262;-68
2023/08/05 05:39:47;;;;;;;12.00;3.53;;;15.80;99.90;;;;;;5059107;28;20053;-68
2023/08/05 05:42:14;;;;;;;10.65;3.95;;;16.00;99.90;;;;;;5055933;28;271970;-68
2023/08/05 05:44:40;;;;;;;10.65;4.13;;;16.10;99.90;;;;;;5065938;28;20049;-68
2023/08/05 05:47:10;;;;;;;11.30;3.95;;;15.90;99.90;;;;;;5052410;28;260711;-68
2023/08/05 05:49:36;;;;;;;11.82;3.97;;;15.80;99.90;;;;;;5080967;28;20051;-68
2023/08/05 05:52:03;;;;;;;9.35;3.70;;;15.70;99.90;;;;;;5029567;28;274921;-67
2023/08/05 05:54:29;;;;;;;11.20;3.85;;;15.60;99.90;;;;;;5058874;28;20424;-70
2023/08/05 05:56:55;;;;;;;12.80;3.45;;;15.60;99.90;;;;;;5053356;28;260363;-68
2023/08/05 05:59:21;;;;;;;9.77;3.67;;;15.50;99.90;;;;;;5042973;28;20065;-68
2023/08/05 06:01:47;;;;;;;11.30;3.80;;;15.60;99.90;;;;;;5049436;28;272492;-68
2023/08/05 06:04:13;;;;;;;10.20;3.30;;;15.60;99.90;;;;;;5042288;28;20056;-68
2023/08/05 06:06:39;;;;;;;9.23;3.72;;;15.70;99.90;;;;;;5049807;28;256824;-68
2023/08/05 06:09:07;;;;;;;9.35;3.40;;;16.00;99.90;;;;;;5063736;28;20049;-68
2023/08/05 06:11:33;;;;;;;10.63;3.45;;;16.40;99.90;;;;;;5067059;28;20053;-68
2023/08/05 06:13:59;;;;;;;10.18;3.30;;;16.80;99.90;;;;;;5038974;28;20048;-69
2023/08/05 06:16:25;;;;;;;12.85;3.05;;;17.10;99.90;;;;;;5063753;28;20056;-68
2023/08/05 06:18:51;;;;;;;9.57;2.90;;;17.40;99.90;;;;;;5061958;28;270256;-69
2023/08/05 06:21:17;;;;;;;10.45;2.63;;;17.60;99.90;;;;;;5067798;28;20045;-68
2023/08/05 06:23:43;;;;;;;8.57;2.72;;;18.00;99.90;;;;;;5046076;28;193531;-69
2023/08/05 06:26:10;;;;;;;9.48;2.40;;;18.00;99.90;;;;;;5067136;28;20053;-68
2023/08/05 06:28:36;;;;;;;10.35;2.40;;;17.80;99.90;;;;;;5057905;28;254844;-68
2023/08/05 06:31:02;;;;;;;11.15;2.30;;;17.80;99.90;;;;;;5080326;28;20045;-68
2023/08/05 06:33:28;;;;;;;7.70;2.20;;;18.10;99.90;;;;;;5045497;28;73298;-68
2023/08/05 06:35:55;;;;;;;9.30;2.17;;;18.20;99.90;;;;;;5046786;28;20045;-69
2023/08/05 06:38:21;;;;;;;7.78;2.05;;;18.50;99.90;;;;;;5025171;28;182636;-69
2023/08/05 06:40:51;;;;;;;13.75;2.10;;;18.70;99.90;;;;;;5048250;28;20059;-68
2023/08/05 06:43:23;;;;;;;7.40;1.93;;;19.10;99.90;;;;;;5042753;28;281248;-68
2023/08/05 06:45:54;;;;;;;7.95;2.00;;;19.30;99.90;;;;;;5041926;28;20306;-69
2023/08/05 06:48:21;;;;;;;7.70;2.00;;;19.30;99.90;;;;;;5054845;28;277808;-69
2023/08/05 06:50:47;;;;;;;8.27;1.90;;;18.90;99.90;;;;;;5070723;28;20951;-68
2023/08/05 06:53:13;;;;;;;7.00;1.85;;;18.70;99.90;;;;;;5013107;28;189790;-68
2023/08/05 06:55:39;;;;;;;7.80;1.92;;;18.70;99.90;;;;;;5042951;28;20053;-68
2023/08/05 06:58:06;;;;;;;7.55;2.15;;;18.50;99.90;;;;;;5051489;28;313303;-67
2023/08/05 07:00:35;;;;;;;7.75;1.90;;;18.40;99.90;;;;;;5062183;28;20056;-67
2023/08/05 07:03:02;;;;;;;10.40;2.20;;;18.40;99.90;;;;;;5049085;28;157097;-68
2023/08/05 07:05:29;;;;;;;7.82;2.03;;;18.20;99.90;;;;;;5066881;28;20041;-69
2023/08/05 07:07:55;;;;;;;11.55;2.72;;;18.10;99.90;;;;;;5056804;28;248545;-68
2023/08/05 07:10:22;;;;;;;9.43;2.33;;;18.00;99.90;;;;;;5068808;28;20052;-69
2023/08/05 07:12:49;;;;;;;11.25;2.20;;;18.00;99.90;;;;;;5052411;28;260019;-68
2023/08/05 07:15:15;;;;;;;8.73;2.10;;;17.90;99.90;;;;;;5066230;28;20048;-68
2023/08/05 07:17:41;;;;;;;8.75;2.10;;;17.90;99.90;;;;;;5048519;28;223114;-68
2023/08/05 07:20:08;;;;;;;7.63;2.28;;;17.90;99.90;;;;;;5049161;28;20060;-68
2023/08/05 07:22:35;;;;;;;9.63;2.42;;;17.90;99.90;;;;;;5044653;28;273817;-68
2023/08/05 07:25:01;;;;;;;8.93;2.47;;;18.00;99.90;;;;;;5066028;28;20040;-68
2023/08/05 07:27:27;;;;;;;10.18;2.30;;;18.20;99.90;;;;;;5054373;28;276171;-67
2023/08/05 07:29:54;;;;;;;8.82;2.50;;;18.30;99.90;;;;;;5063831;28;20522;-68
2023/08/05 07:32:20;;;;;;;10.13;2.63;;;18.80;99.90;;;;;;5055223;28;258606;-69
2023/08/05 07:34:47;;;;;;;9.55;2.30;;;19.30;99.90;;;;;;5064110;28;20045;-69
2023/08/05 07:37:14;;;;;;;8.93;2.05;;;19.70;99.90;;;;;;5043951;28;272107;-69
2023/08/05 07:39:46;;;;;;;9.52;2.40;;;19.90;99.90;;;;;;5056502;28;20059;-69
2023/08/05 07:42:15;;;;;;;8.65;2.17;;;20.00;99.90;;;;;;5056694;28;265318;-67
2023/08/05 07:44:42;;;;;;;8.80;2.25;;;20.00;99.90;;;;;;5075999;28;20415;-69
2023/08/05 07:47:09;;;;;;;9.63;2.60;;;19.90;99.90;;;;;;5048961;28;268232;-69
2023/08/05 07:49:39;;;;;;;8.38;2.22;;;19.70;99.90;;;;;;5064881;28;20045;-68
2023/08/05 07:52:06;;;;;;;8.00;2.28;;;19.70;99.90;;;;;;5038328;28;276245;-68
2023/08/05 07:54:33;;;;;;;9.55;2.50;;;19.80;99.90;;;;;;5074838;28;20059;-68
2023/08/05 07:56:59;;;;;;;10.48;2.42;;;19.70;99.90;;;;;;5061596;28;86096;-67
2023/08/05 07:59:27;;;;;;;7.50;1.95;;;19.60;99.90;;;;;;5059573;28;20111;-68
2023/08/05 08:01:55;;;;;;;7.78;2.17;;;19.60;99.90;;;;;;5051274;28;263416;-69
2023/08/05 08:04:21;;;;;;;9.50;2.40;;;19.60;99.90;;;;;;5054400;28;20053;-68
2023/08/05 08:06:48;;;;;;;8.97;2.67;;;19.70;99.90;;;;;;5049833;28;252981;-67
2023/08/05 08:09:14;;;;;;;8.38;2.40;;;19.70;99.90;;;;;;5067390;28;20060;-68
2023/08/05 08:11:41;;;;;;;7.75;2.10;;;19.80;99.90;;;;;;5055837;28;257655;-68
2023/08/05 08:14:07;;;;;;;8.63;2.33;;;19.80;99.90;;;;;;5071381;28;20061;-68
2023/08/05 08:16:33;;;;;;;7.22;2.10;;;19.80;99.90;;;;;;5055943;28;271666;-66
2023/08/05 08:18:59;;;;;;;9.10;2.28;;;19.60;99.90;;;;;;5075927;28;20056;-68
2023/08/05 08:21:25;;;;;;;11.07;2.20;;;19.60;99.90;;;;;;5065834;28;20049;-68
2023/08/05 08:23:52;;;;;;;8.85;2.50;;;19.40;99.90;;;;;;5061703;28;258834;-68
2023/08/05 08:26:18;;;;;;;10.15;2.50;;;19.40;99.90;;;;;;5061395;28;20045;-67
2023/08/05 08:28:44;;;;;;;8.45;2.20;;;19.50;99.90;;;;;;5060405;28;276217;-68
2023/08/05 08:31:10;;;;;;;8.15;2.13;;;19.60;99.90;;;;;;5067377;28;20056;-68
2023/08/05 08:33:37;;;;;;;11.27;2.22;;;20.10;99.90;;;;;;5056540;28;277052;-68
2023/08/05 08:36:03;;;;;;;9.70;2.10;;;20.30;99.90;;;;;;5063282;28;20454;-67
2023/08/05 08:38:29;;;;;;;11.18;2.55;;;21.00;99.90;;;;;;5057173;28;266108;-68
2023/08/05 08:40:58;;;;;;;9.88;2.08;;;21.80;99.90;;;;;;5069938;28;20498;-69
2023/08/05 08:43:26;;;;;;;8.93;1.90;;;22.30;99.90;;;;;;5055410;28;107768;-68
2023/08/05 08:45:53;;;;;;;9.18;1.95;;;22.10;99.90;;;;;;5066802;28;20055;-68
2023/08/05 08:48:20;;;;;;;9.57;2.10;;;22.30;99.90;;;;;;5061294;28;256356;-67
2023/08/05 08:50:48;;;;;;;9.73;2.20;;;22.30;99.90;;;;;;5071807;28;20056;-67
2023/08/05 08:53:15;;;;;;;8.32;2.08;;;22.30;99.90;;;;;;5028519;28;262319;-68
2023/08/05 08:55:42;;;;;;;7.88;2.10;;;22.30;99.90;;;;;;5057730;28;20048;-68
2023/08/05 08:58:09;;;;;;;8.20;2.15;;;22.10;99.90;;;;;;5060899;28;272860;-67
2023/08/05 09:00:37;;;;;;;8.57;2.08;;;21.80;99.90;;;;;;5060832;28;20052;-68
2023/08/05 09:03:05;;;;;;;7.50;1.85;;;21.50;99.90;;;;;;5058092;28;254211;-68
2023/08/05 09:05:41;;;;;;;8.68;2.08;;;21.40;99.90;;;;;;5066148;28;20060;-68
2023/08/05 09:08:08;;;;;;;8.73;2.00;;;21.50;99.90;;;;;;5064147;28;255381;-68
2023/08/05 09:10:38;;;;;;;8.30;2.30;;;21.80;99.90;;;;;;5065224;28;20052;-68
2023/08/05 09:13:05;;;;;;;9.33;2.03;;;22.40;99.90;;;;;;5058184;28;31948;-70
2023/08/05 09:15:37;;;;;;;8.23;1.80;;;22.70;99.90;;;;;;5046401;28;20053;-69
2023/08/05 09:18:04;;;;;;;7.65;1.90;;;23.30;99.90;;;;;;5054774;28;258469;-68
2023/08/05 09:20:31;;;;;;;8.88;2.20;;;23.50;99.90;;;;;;5065049;28;20060;-69
2023/08/05 09:23:03;;;;;;;7.43;1.80;;;23.00;99.60;;;;;;5058556;28;254350;-68
2023/08/05 09:25:30;;;;;;;7.80;2.00;;;22.90;99.90;;;;;;5064985;28;20052;-69
2023/08/05 09:28:04;;;;;;;7.18;1.90;;;23.10;99.80;;;;;;5050138;28;210805;-68
2023/08/05 09:30:32;;;;;;;8.23;2.10;;;23.80;99.00;;;;;;5065850;28;20067;-69
2023/08/05 09:32:58;;;;;;;7.35;1.80;;;23.80;98.80;;;;;;5061792;28;272322;-69
2023/08/05 09:35:26;;;;;;;7.00;1.73;;;24.00;98.90;;;;;;5068969;28;20112;-68
2023/08/05 09:37:53;;;;;;;7.03;1.60;;;24.50;97.20;;;;;;5056813;28;267973;-68
2023/08/05 09:40:32;;;;;;;8.10;1.70;;;24.90;97.90;;;;;;5074266;28;20049;-68
2023/08/05 09:42:59;;;;;;;6.00;1.50;;;24.60;97.60;;;;;;5049787;28;157074;-68
2023/08/05 09:45:33;;;;;;;7.13;1.70;;;23.90;97.60;;;;;;5060885;28;20052;-68
2023/08/05 09:48:10;;;;;;;8.98;1.73;;;23.90;98.00;;;;;;5049662;28;135584;-67
2023/08/05 09:50:37;;;;;;;7.15;1.80;;;24.60;97.90;;;;;;5063446;28;20053;-65
2023/08/05 09:53:09;;;;;;;7.63;1.80;;;24.90;97.40;;;;;;5025748;28;157823;-66
2023/08/05 09:55:38;;;;;;;7.07;1.83;;;24.90;97.60;;;;;;5066309;28;20048;-67
2023/08/05 09:58:07;;;;;;;8.32;1.70;;;24.60;96.00;;;;;;5059734;28;296368;-66
2023/08/05 10:00:36;;;;;;;7.22;1.75;;;24.10;97.20;;;;;;5064891;28;20045;-67
2023/08/05 10:03:07;;;;;;;6.18;1.70;;;24.80;95.90;;;;;;5052139;28;274184;-66
2023/08/05 10:05:34;;;;;;;10.55;1.90;;;25.20;95.90;;;;;;5059959;28;20698;-67
2023/08/05 10:08:01;;;;;;;7.35;1.75;;;26.00;96.00;;;;;;5053692;28;161620;-66
2023/08/05 10:10:29;;;;;;;6.78;1.55;;;26.70;95.40;;;;;;5068876;28;20051;-67
2023/08/05 10:13:00;;;;;;;8.05;1.50;;;27.30;95.50;;;;;;5055860;28;261645;-67
2023/08/05 10:15:32;;;;;;;6.55;1.60;;;27.10;95.70;;;;;;5061517;28;20059;-67
2023/08/05 10:17:59;;;;;;;6.07;1.70;;;26.30;95.60;;;;;;5060227;28;273511;-66
2023/08/05 10:20:25;;;;;;;6.60;1.80;;;25.60;95.90;;;;;;5065797;28;20041;-66
2023/08/05 10:23:01;;;;;;;6.55;1.83;;;25.90;95.70;;;;;;5052286;28;159101;-67
2023/08/05 10:25:42;;;;;;;7.65;1.77;;;26.30;95.80;;;;;;5065430;28;20052;-66
2023/08/05 10:28:09;;;;;;;5.88;1.55;;;26.60;95.20;;;;;;5053876;28;271235;-67
2023/08/05 10:30:43;;;;;;;7.28;1.63;;;26.90;95.70;;;;;;5060743;28;20682;-67
2023/08/05 10:33:09;;;;;;;8.38;1.88;;;26.70;95.30;;;;;;5061981;28;268045;-67
2023/08/05 10:35:40;;;;;;;6.15;1.60;;;26.40;95.40;;;;;;5067199;28;20061;-67
2023/08/05 10:38:06;;;;;;;7.53;1.80;;;26.50;95.50;;;;;;5065148;28;123491;-66
2023/08/05 10:41:02;;;;;;;6.88;1.65;;;26.90;95.80;;;;;;5064799;28;20051;-67
2023/08/05 10:43:31;;;;;;;6.57;1.52;;;27.60;95.00;;;;;;5041531;28;251065;-67
2023/08/05 10:45:58;;;;;;;7.78;1.70;;;27.90;95.20;;;;;;5059317;28;20040;-67
2023/08/05 10:48:49;;;;;;;7.07;1.80;;;27.40;94.20;;;;;;5063966;28;269486;-67
2023/08/05 10:51:24;;;;;;;8.68;1.63;;;26.80;94.20;;;;;;5062805;28;20053;-67
2023/08/05 10:53:50;;;;;;;6.90;1.77;;;26.70;94.60;;;;;;5034496;28;262243;-67
2023/08/05 10:56:17;;;;;;;5.70;1.50;;;26.30;93.10;;;;;;5064379;28;20064;-68
2023/08/05 10:58:50;;;;;;;7.35;1.75;;;26.00;95.00;;;;;;5058602;28;291596;-68
2023/08/05 11:01:17;;;;;;;6.72;1.63;;;25.90;94.50;;;;;;5063198;28;20063;-66
2023/08/05 11:03:48;;;;;;;6.22;1.55;;;25.90;95.40;;;;;;5041677;28;138472;-68
2023/08/05 11:06:15;;;;;;;;;;;26.00;95.10;;;;;;5068790;28;20052;-67
2023/08/05 11:08:42;;;;;;;9.77;2.00;;;25.80;94.50;;;;;;5051700;28;195336;-67
2023/08/05 11:11:13;;;;;;;6.38;1.60;;;25.60;95.10;;;;;;5080623;28;20044;-68
2023/08/05 11:13:44;;;;;;;8.80;1.90;;;25.50;95.50;;;;;;5061875;28;268484;-68
2023/08/05 11:16:18;;;;;;;7.28;1.70;;;25.10;95.00;;;;;;5062671;28;20060;-68
2023/08/05 11:18:46;;;;;;;7.35;1.80;;;25.00;95.10;;;;;;5062671;28;276036;-68
2023/08/05 11:21:14;;;;;;;5.88;1.50;;;24.90;95.50;;;;;;5061253;28;20415;-68
2023/08/05 11:23:43;;;;;;;9.00;2.20;;;24.80;95.60;;;;;;5048439;28;225894;-67
2023/08/05 11:26:09;;;;;;;7.70;2.17;;;24.70;95.60;;;;;;5065592;28;20495;-68
2023/08/05 11:28:42;;;;;;;7.38;1.98;;;24.70;96.00;;;;;;5059681;28;271935;-68
2023/08/05 11:31:08;;;;;;;6.65;2.20;;;24.70;95.80;;;;;;5068504;28;20063;-68
2023/08/05 11:33:34;;;;;;;8.40;2.05;;;24.80;96.10;;;;;;5064849;28;265115;-68
2023/08/05 11:36:01;;;;;;;8.93;2.38;;;24.90;95.80;;;;;;5065349;28;20059;-68
2023/08/05 11:38:27;;;;;;;7.50;2.42;;;24.80;95.90;;;;;;5062367;28;227409;-68
2023/08/05 11:40:57;;;;;;;9.05;2.65;;;24.60;95.90;;;;;;5062206;28;20060;-68
2023/08/05 11:43:24;;;;;;;8.77;2.53;;;24.20;96.30;;;;;;5052208;28;267929;-68
2023/08/05 11:45:51;;;;;;;8.18;2.50;;;24.10;96.50;;;;;;5059551;28;20056;-68
2023/08/05 11:48:19;;;;;;;8.15;2.63;;;24.00;96.50;;;;;;5062981;28;267739;-67
2023/08/05 11:50:45;;;;;;;10.25;2.60;;;24.00;96.70;;;;;;5062570;28;20060;-67
2023/08/05 11:53:12;;;;;;;8.80;2.47;;;23.90;96.70;;;;;;5017587;28;207487;-67
2023/08/05 11:55:40;;;;;;;7.13;2.30;;;23.90;96.80;;;;;;5065048;28;20081;-67
2023/08/05 11:58:06;;;;;;;6.70;2.08;;;23.90;97.20;;;;;;5060061;28;255155;-68
2023/08/05 12:00:33;;;;;;;7.45;2.30;;;23.70;97.10;;;;;;5066052;28;20053;-67
2023/08/05 12:03:01;;;;;;;7.50;2.40;;;23.60;97.10;;;;;;5047829;28;252935;-67
2023/08/05 12:05:27;;;;;;;7.25;2.50;;;23.30;97.30;;;;;;5057343;28;20052;-68
2023/08/05 12:07:53;;;;;;;9.43;2.50;;;23.10;97.50;;;;;;5051126;28;154774;-68
2023/08/05 12:10:20;;;;;;;10.18;3.10;;;22.90;98.20;;;;;;5066711;28;20503;-68
2023/08/05 12:12:48;;;;;;;13.02;3.20;;;22.80;98.80;;;;;;5057956;28;273124;-69
2023/08/05 12:15:24;;;;;;;8.05;3.30;;;22.70;99.30;;;;;;5072019;28;20067;-68
2023/08/05 12:18:01;;;;;;;10.95;4.18;;;22.30;99.90;;;;;;5053476;28;260381;-68
2023/08/05 12:20:30;;;;;;;9.60;4.72;;;22.00;99.90;;;;;;5069860;28;20064;-68
2023/08/05 12:22:58;;;;;;;8.90;4.50;;;21.60;99.90;;;;;;5052015;28;261126;-67
2023/08/05 12:25:25;;;;;;;9.57;4.72;;;21.50;99.90;;;;;;5069560;28;20063;-70
2023/08/05 12:27:52;;;;;;;11.57;5.00;;;21.50;99.90;;;;;;5056131;28;246670;-67
2023/08/05 12:30:18;;;;;;;10.00;4.50;;;21.60;99.90;;;;;;5063440;28;20053;-68
2023/08/05 12:32:44;;;;;;;10.23;5.10;;;21.70;99.90;;;;;;5060679;28;257719;-68
2023/08/05 12:35:11;;;;;;;10.65;4.97;;;21.80;99.90;;;;;;5074249;28;20053;-67
2023/08/05 12:37:39;;;;;;;11.15;5.22;;;21.90;99.90;;;;;;5056514;28;274987;-68
2023/08/05 12:40:10;;;;;;;10.82;4.88;;;22.00;99.90;;;;;;5079209;28;20057;-68